Flight Track Log - Related Links

Times and Time Zones

All times are in EDT time to prevent confusion due to time zone crossing. See the PDC2805 flight status page for this flight to view local times or setup timezone preferences in your user account.

Time Position Orientation Groundspeed Altitude Reporting Facility
EDT Latitude Longitude Course Direction KTS MPH feet Rate Location/Type
Wed 08:13:00 PM 45.7791 126.7500 66° East  Level Estimated
Wed 08:14:00 PM 45.8011 126.8216 66° East  Level Estimated
Wed 08:15:00 PM 45.8232 126.8933 66° East  Level Estimated
Wed 08:16:00 PM 45.8451 126.9650 66° East  Level Estimated
Wed 08:17:00 PM 45.8671 127.0368 66° East  Level Estimated
Wed 08:18:00 PM 45.8889 127.1087 66° East  Level Estimated
Wed 08:19:00 PM 45.9108 127.1805 66° East  Level Estimated
Wed 08:20:00 PM 45.9326 127.2525 66° East  Level Estimated
Wed 08:21:00 PM 45.9543 127.3245 66° East  Level Estimated
Wed 08:22:00 PM 45.9760 127.3966 67° East  Level Estimated
Wed 08:23:00 PM 45.9977 127.4687 67° East  Level Estimated
Wed 08:24:00 PM 46.0193 127.5409 67° East  Level Estimated
Wed 08:25:00 PM 46.0408 127.6131 67° East  Level Estimated
Wed 08:26:00 PM 46.0624 127.6854 67° East  Level Estimated
Wed 08:27:00 PM 46.0838 127.7577 67° East  Level Estimated
Wed 08:28:00 PM 46.1053 127.8301 67° East  Level Estimated
Wed 08:29:00 PM 46.1266 127.9026 67° East  Level Estimated
Wed 08:30:00 PM 46.1480 127.9751 67° East  Level Estimated
Wed 08:31:00 PM 46.1693 128.0477 67° East  Level Estimated
Wed 08:32:00 PM 46.1905 128.1203 67° East  Level Estimated
Wed 08:33:00 PM 46.2117 128.1930 67° East  Level Estimated
Wed 08:34:00 PM 46.2328 128.2657 67° East  Level Estimated
Wed 08:35:00 PM 46.2540 128.3385 67° East  Level Estimated
Wed 08:36:00 PM 46.2750 128.4114 67° East  Level Estimated
Wed 08:37:00 PM 46.2960 128.4843 67° East  Level Estimated
Wed 08:38:00 PM 46.3170 128.5573 67° East  Level Estimated
Wed 08:39:00 PM 46.3379 128.6303 67° East  Level Estimated
Wed 08:40:00 PM 46.3588 128.7034 67° East  Level Estimated
Wed 08:41:00 PM 46.3796 128.7765 68° East  Level Estimated
Wed 08:42:00 PM 46.4004 128.8497 68° East  Level Estimated
Wed 08:43:00 PM 46.4211 128.9229 68° East  Level Estimated
Wed 08:44:00 PM 46.4418 128.9962 68° East  Level Estimated
Wed 08:45:00 PM 46.4625 129.0696 68° East  Level Estimated
Wed 08:46:00 PM 46.4831 129.1430 68° East  Level Estimated
Wed 08:47:00 PM 46.5036 129.2164 68° East  Level Estimated
Wed 08:48:00 PM 46.5241 129.2900 68° East  Level Estimated
Wed 08:49:00 PM 46.5446 129.3635 68° East  Level Estimated
Wed 08:50:00 PM 46.5649 129.4372 68° East  Level Estimated
Wed 08:51:00 PM 46.5853 129.5109 68° East  Level Estimated
Wed 08:52:00 PM 46.6056 129.5846 68° East  Level Estimated
Wed 08:53:00 PM 46.6259 129.6584 68° East  Level Estimated
Wed 08:54:00 PM 46.6461 129.7323 68° East  Level Estimated
Wed 08:55:00 PM 46.6663 129.8062 68° East  Level Estimated
Wed 08:56:00 PM 46.6864 129.8801 68° East  Level Estimated
Wed 08:57:00 PM 46.7065 129.9541 68° East  Level Estimated
Wed 08:58:00 PM 46.7265 130.0282 68° East  Level Estimated
Wed 08:59:00 PM 46.7465 130.1023 69° East  Level Estimated
Wed 09:00:00 PM 46.7664 130.1765 69° East  Level Estimated
Wed 09:01:00 PM 46.7863 130.2508 69° East  Level Estimated
Wed 09:02:00 PM 46.8061 130.3250 69° East  Level Estimated
Wed 09:03:00 PM 46.8259 130.3994 69° East  Level Estimated
Wed 09:04:00 PM 46.8434 130.4654 69° East  Level Estimated
Wed 09:05:00 PM 46.8434 130.4654 350° North  Level Estimated
Wed 09:06:00 PM 46.8434 130.4654 350° North  Level Estimated
Wed 09:07:00 PM 46.8434 130.4654 350° North  Level Estimated
Wed 09:08:00 PM 46.8434 130.4654 350° North  Level Estimated
Wed 09:09:00 PM 46.8434 130.4654 350° North  Level Estimated
Wed 09:10:00 PM 46.8434 130.4654 350° North  Level Estimated

Login

Don't have an account? Register now (free) for customized features, flight alerts, and more!